Time;durP1;ratioP1;P1;durP2;ratioP2;P2;SDS_P1;SDS_P2;PMS_P1;PMS_P2;Temp;Humidity;BMP_temperature;BMP_pressure;BME280_temperature;BME280_humidity;BME280_pressure;Samples;Min_cycle;Max_cycle;Signal;HPM_P1;HPM_P2
2021/05/30 00:01:58;;;;;;;3.60;1.50;;;;;;;;;;4789331;28;20220;-78
2021/05/30 00:04:21;;;;;;;4.73;2.10;;;9.40;1.00;;;;;;4811611;28;20199;-77
2021/05/30 00:06:43;;;;;;;2.60;1.40;;;;;;;;;;4811821;28;20214;-76
2021/05/30 00:09:05;;;;;;;2.57;1.23;;;9.40;1.00;;;;;;4781291;28;20200;-78
2021/05/30 00:11:27;;;;;;;3.97;1.90;;;9.50;1.00;;;;;;4780624;29;20581;-78
2021/05/30 00:13:51;;;;;;;3.60;1.57;;;9.50;1.00;;;;;;4781003;28;20216;-78
2021/05/30 00:16:14;;;;;;;3.30;1.60;;;9.40;1.00;;;;;;4780464;29;20201;-77
2021/05/30 00:18:35;;;;;;;2.20;1.30;;;9.50;1.00;;;;;;4781207;29;20193;-78
2021/05/30 00:20:58;;;;;;;3.10;1.53;;;;;;;;;;4780661;29;20209;-78
2021/05/30 00:23:20;;;;;;;3.07;1.43;;;9.50;5.60;;;;;;4780932;29;20603;-78
2021/05/30 00:25:42;;;;;;;5.57;2.20;;;;;;;;;;4780703;28;20201;-73
2021/05/30 00:28:05;;;;;;;2.00;1.20;;;9.40;2.40;;;;;;4813915;28;20193;-76
2021/05/30 00:30:27;;;;;;;3.73;1.77;;;;;;;;;;4799245;28;20284;-77
2021/05/30 00:32:50;;;;;;;2.90;1.50;;;8.10;1.00;;;;;;4799646;28;20238;-77
2021/05/30 00:35:12;;;;;;;2.80;1.40;;;;;;;;;;4799369;28;20223;-75
2021/05/30 00:37:35;;;;;;;4.33;1.40;;;;;;;;;;4813801;28;20200;-78
2021/05/30 00:39:57;;;;;;;3.33;1.77;;;9.60;1.00;;;;;;4808965;28;20208;-78
2021/05/30 00:42:19;;;;;;;4.83;2.17;;;10.00;1.00;;;;;;4799222;28;20192;-78
2021/05/30 00:44:41;;;;;;;2.43;1.37;;;9.20;1.00;;;;;;4799831;28;20207;-77
2021/05/30 00:47:03;;;;;;;2.10;1.30;;;9.50;1.00;;;;;;4801053;28;20215;-74
2021/05/30 00:49:27;;;;;;;5.03;2.13;;;9.50;1.00;;;;;;4798515;28;20239;-73
2021/05/30 00:51:50;;;;;;;2.20;1.30;;;9.50;1.00;;;;;;4797908;28;20227;-73
2021/05/30 00:54:13;;;;;;;2.67;1.33;;;;;;;;;;4816995;28;20196;-77
2021/05/30 00:56:35;;;;;;;2.13;1.23;;;9.50;1.00;;;;;;4800174;28;20316;-75
2021/05/30 00:58:57;;;;;;;1.77;1.17;;;;;;;;;;4799251;28;20239;-75
2021/05/30 01:01:19;;;;;;;5.60;2.40;;;9.50;20.70;;;;;;4796295;28;20527;-74
2021/05/30 01:03:41;;;;;;;3.00;1.70;;;;;;;;;;4798906;28;20181;-75
2021/05/30 01:06:05;;;;;;;4.33;1.50;;;9.70;1.00;;;;;;4800356;28;20196;-73
2021/05/30 01:08:28;;;;;;;4.03;1.97;;;;;;;;;;4794986;28;20282;-74
2021/05/30 01:10:52;;;;;;;2.70;1.60;;;9.50;1.00;;;;;;4802520;28;20212;-74
2021/05/30 01:13:15;;;;;;;3.43;1.63;;;9.50;1.00;;;;;;4802060;28;20192;-73
2021/05/30 01:15:37;;;;;;;3.97;1.70;;;9.60;4.30;;;;;;4800676;28;20208;-73
2021/05/30 01:17:59;;;;;;;3.10;1.40;;;;;;;;;;4797715;28;20708;-74
2021/05/30 01:20:22;;;;;;;5.27;2.07;;;9.60;3.10;;;;;;4800498;28;20192;-73
2021/05/30 01:22:46;;;;;;;2.37;1.30;;;9.50;5.40;;;;;;4802143;28;20192;-73
2021/05/30 01:25:10;;;;;;;3.27;1.60;;;9.50;2.20;;;;;;4799968;28;20744;-73
2021/05/30 01:27:32;;;;;;;4.23;1.93;;;9.60;26.20;;;;;;4802279;28;20191;-74
2021/05/30 01:29:54;;;;;;;2.83;1.40;;;9.60;12.80;;;;;;4802276;28;20274;-74
2021/05/30 01:32:17;;;;;;;3.23;1.63;;;;;;;;;;4801095;28;20188;-73
2021/05/30 01:34:39;;;;;;;3.93;1.93;;;;;;;;;;4801402;28;20208;-74
2021/05/30 01:37:01;;;;;;;2.40;1.30;;;;;;;;;;4802266;28;20251;-73
2021/05/30 01:39:26;;;;;;;1.40;0.90;;;9.30;31.10;;;;;;4802196;28;20238;-74
2021/05/30 01:41:49;;;;;;;2.50;1.37;;;9.50;5.20;;;;;;4802515;28;20196;-74
2021/05/30 01:44:11;;;;;;;1.97;1.20;;;9.60;35.50;;;;;;4802185;28;20242;-73
2021/05/30 01:46:33;;;;;;;3.27;1.80;;;;;;;;;;4801688;28;20721;-75
2021/05/30 01:48:55;;;;;;;2.60;1.37;;;9.50;13.80;;;;;;4801899;28;20188;-74
2021/05/30 01:51:17;;;;;;;2.23;1.40;;;;;;;;;;4802004;28;20274;-73
2021/05/30 01:53:46;;;;;;;3.00;1.70;;;;;;;;;;4802184;28;20250;-74
2021/05/30 01:58:49;;;;;;;2.47;1.57;;;9.40;48.20;;;;;;4802292;28;20242;-78
2021/05/30 02:01:13;;;;;;;2.03;1.33;;;9.50;51.50;;;;;;4799249;28;20208;-76
2021/05/30 02:03:36;;;;;;;4.47;2.00;;;9.50;22.40;;;;;;4801169;28;20216;-76
2021/05/30 02:05:59;;;;;;;3.57;1.57;;;9.50;55.90;;;;;;4801547;28;20661;-74
2021/05/30 02:08:22;;;;;;;2.77;1.47;;;;;;;;;;4800202;28;20358;-74
2021/05/30 02:10:44;;;;;;;1.67;1.10;;;;;;;;;;4801835;28;20979;-76
2021/05/30 02:13:07;;;;;;;2.17;1.10;;;9.50;20.60;;;;;;4801975;28;20223;-78
2021/05/30 02:15:31;;;;;;;4.30;1.90;;;9.40;45.60;;;;;;4801605;28;20220;-76
2021/05/30 02:17:53;;;;;;;2.17;1.33;;;9.30;27.00;;;;;;4801323;28;20196;-74
2021/05/30 02:20:17;;;;;;;1.30;1.10;;;9.40;43.20;;;;;;4801535;28;20302;-75
2021/05/30 02:22:40;;;;;;;3.90;1.73;;;9.30;41.50;;;;;;4801514;28;20216;-74
2021/05/30 02:25:02;;;;;;;2.00;1.07;;;;;;;;;;4801654;28;20195;-79
2021/05/30 02:27:24;;;;;;;1.70;1.03;;;;;;;;;;4801298;28;20610;-75
2021/05/30 02:29:46;;;;;;;1.57;1.03;;;;;;;;;;4801063;28;20549;-75
2021/05/30 02:32:11;;;;;;;1.83;1.17;;;9.20;7.70;;;;;;4801717;28;20192;-75
2021/05/30 02:34:33;;;;;;;3.63;1.80;;;9.20;16.30;;;;;;4799825;28;20574;-76
2021/05/30 02:36:56;;;;;;;2.43;1.30;;;9.10;22.70;;;;;;4801534;28;20188;-77
2021/05/30 02:39:18;;;;;;;2.37;1.33;;;9.10;29.40;;;;;;4799948;28;20275;-76
2021/05/30 02:41:40;;;;;;;4.10;1.87;;;;;;;;;;4801268;28;20239;-75
2021/05/30 02:44:02;;;;;;;1.30;1.00;;;;;;;;;;4801439;28;20192;-76
2021/05/30 02:46:24;;;;;;;1.77;1.07;;;;;;;;;;4801437;28;20254;-76
2021/05/30 02:48:47;;;;;;;1.70;1.17;;;9.00;63.70;;;;;;4801236;28;20602;-76
2021/05/30 02:51:09;;;;;;;2.47;1.40;;;9.00;35.60;;;;;;4800582;28;20704;-75
2021/05/30 02:53:33;;;;;;;2.53;1.57;;;9.10;43.50;;;;;;4801067;28;20188;-78
2021/05/30 02:55:55;;;;;;;2.23;1.30;;;9.00;42.50;;;;;;4799340;28;20204;-75
2021/05/30 02:58:17;;;;;;;2.27;1.43;;;8.90;79.00;;;;;;4799676;28;20192;-79
2021/05/30 03:00:39;;;;;;;18.17;7.27;;;9.10;53.00;;;;;;4797432;28;20199;-75
2021/05/30 03:03:01;;;;;;;1.93;1.30;;;8.90;85.70;;;;;;4784008;28;20279;-76
2021/05/30 03:05:24;;;;;;;1.57;1.03;;;9.20;90.20;;;;;;4782584;29;20190;-76
2021/05/30 03:07:46;;;;;;;1.47;1.07;;;9.10;68.40;;;;;;4781916;28;20256;-76
2021/05/30 03:10:10;;;;;;;2.53;1.47;;;9.20;95.30;;;;;;4782070;29;20184;-75
2021/05/30 03:12:32;;;;;;;4.07;2.20;;;9.20;94.50;;;;;;4782047;29;20212;-75
2021/05/30 03:14:54;;;;;;;1.93;1.30;;;9.00;90.50;;;;;;4764378;29;20293;-75
2021/05/30 03:17:16;;;;;;;2.30;1.40;;;9.30;91.70;;;;;;4782066;29;20184;-75
2021/05/30 03:19:38;;;;;;;4.80;2.37;;;9.30;99.50;;;;;;4781200;29;20201;-75
2021/05/30 03:22:01;;;;;;;1.70;1.30;;;8.80;99.90;;;;;;4782026;29;20203;-74
2021/05/30 03:24:23;;;;;;;1.87;1.40;;;;;;;;;;4782013;29;20244;-75
2021/05/30 03:26:45;;;;;;;1.67;1.30;;;9.30;99.90;;;;;;4781102;29;20667;-76
2021/05/30 03:29:07;;;;;;;1.33;1.10;;;;;;;;;;4764041;29;20209;-75
2021/05/30 03:31:29;;;;;;;4.20;2.00;;;;;;;;;;4781605;29;20216;-75
2021/05/30 03:33:51;;;;;;;2.00;1.37;;;9.20;78.90;;;;;;4781979;29;20655;-74
2021/05/30 03:36:17;;;;;;;3.10;1.63;;;9.40;93.80;;;;;;4777049;29;20242;-75
2021/05/30 03:38:40;;;;;;;3.20;1.80;;;9.40;65.50;;;;;;4732763;29;20215;-75
2021/05/30 03:41:04;;;;;;;1.83;1.17;;;9.30;93.60;;;;;;4763207;29;20694;-78
2021/05/30 03:43:27;;;;;;;2.10;1.33;;;9.50;91.60;;;;;;4763203;29;20251;-74
2021/05/30 03:45:49;;;;;;;1.93;1.23;;;9.30;86.80;;;;;;4763278;29;20899;-75
2021/05/30 03:48:11;;;;;;;1.40;1.10;;;9.20;60.20;;;;;;4762571;29;20202;-74
2021/05/30 03:50:33;;;;;;;3.00;1.63;;;;;;;;;;4762238;29;20233;-76
2021/05/30 03:52:55;;;;;;;1.30;0.90;;;;;;;;;;4762662;29;20205;-75
2021/05/30 03:55:19;;;;;;;1.80;1.20;;;10.80;30.60;;;;;;4762870;29;20185;-82
2021/05/30 03:57:41;;;;;;;3.50;1.93;;;9.60;27.10;;;;;;4762962;29;20194;-74
2021/05/30 04:00:05;;;;;;;1.47;1.00;;;9.40;57.20;;;;;;4768222;29;20260;-75
2021/05/30 04:02:28;;;;;;;3.33;1.60;;;9.60;50.10;;;;;;4769641;29;20228;-75
2021/05/30 04:04:50;;;;;;;2.17;1.30;;;9.70;22.80;;;;;;4781179;29;20676;-75
2021/05/30 04:07:12;;;;;;;2.37;1.33;;;;;;;;;;4786111;28;20236;-74
2021/05/30 04:09:34;;;;;;;3.50;1.77;;;9.70;15.10;;;;;;4799340;28;20255;-75
2021/05/30 04:11:57;;;;;;;1.63;1.00;;;9.80;39.20;;;;;;4799662;28;20823;-78
2021/05/30 04:14:19;;;;;;;2.17;1.13;;;9.60;19.50;;;;;;4800012;28;20595;-78
2021/05/30 04:16:41;;;;;;;2.17;1.40;;;9.90;24.20;;;;;;4799570;28;20208;-76
2021/05/30 04:19:04;;;;;;;1.50;0.90;;;;;;;;;;4799938;28;20211;-78
2021/05/30 04:21:26;;;;;;;1.33;0.90;;;;;;;;;;4798317;28;20686;-75
2021/05/30 04:23:48;;;;;;;1.67;1.07;;;;;;;;;;4799643;28;20187;-74
2021/05/30 04:26:10;;;;;;;1.47;0.93;;;10.10;19.90;;;;;;4782256;28;20228;-75
2021/05/30 04:28:33;;;;;;;3.83;1.77;;;10.30;1.00;;;;;;4799744;28;20239;-81
2021/05/30 04:30:56;;;;;;;2.40;1.20;;;;;;;;;;4799845;28;20208;-74
2021/05/30 04:33:18;;;;;;;2.03;1.20;;;;;;;;;;4799831;28;20192;-76
2021/05/30 04:35:40;;;;;;;4.47;2.07;;;10.50;1.00;;;;;;4799526;28;20187;-75
2021/05/30 04:38:02;;;;;;;1.77;1.10;;;10.50;1.00;;;;;;4782084;28;20201;-81
2021/05/30 04:40:25;;;;;;;1.30;0.83;;;10.60;1.00;;;;;;4800637;28;20239;-82
2021/05/30 04:42:47;;;;;;;1.27;0.73;;;10.60;1.00;;;;;;4803544;28;20222;-82
2021/05/30 04:45:11;;;;;;;1.53;0.83;;;10.90;1.00;;;;;;4803044;28;20200;-81
2021/05/30 04:47:33;;;;;;;3.40;1.60;;;;;;;;;;4802627;28;20191;-78
2021/05/30 04:49:55;;;;;;;1.80;0.93;;;;;;;;;;4803427;28;20184;-82
2021/05/30 04:52:17;;;;;;;2.00;0.93;;;11.40;1.00;;;;;;4785828;28;20236;-80
2021/05/30 04:54:39;;;;;;;3.13;1.43;;;11.50;1.00;;;;;;4785408;28;20201;-81
2021/05/30 04:57:02;;;;;;;2.13;1.03;;;12.20;1.00;;;;;;4802131;28;20251;-74
2021/05/30 04:59:24;;;;;;;1.57;0.93;;;;;;;;;;4803241;28;20184;-74
2021/05/30 05:01:46;;;;;;;1.17;0.60;;;12.20;99.90;;;;;;4800226;28;20228;-77
2021/05/30 05:04:08;;;;;;;1.43;0.67;;;12.10;99.90;;;;;;4803266;28;20232;-81
2021/05/30 05:06:30;;;;;;;2.50;1.10;;;12.20;1.00;;;;;;4802324;28;20224;-76
2021/05/30 05:08:53;;;;;;;1.37;0.80;;;12.00;99.90;;;;;;4802966;28;20200;-73
2021/05/30 05:11:16;;;;;;;2.67;1.10;;;;;;;;;;4801099;28;20232;-74
2021/05/30 05:13:38;;;;;;;3.80;1.43;;;;;;;;;;4802783;28;20188;-74
2021/05/30 05:16:00;;;;;;;1.70;0.87;;;12.60;1.00;;;;;;4802982;28;20231;-73
2021/05/30 05:18:24;;;;;;;2.87;1.27;;;12.00;1.00;;;;;;4800887;28;20250;-76
2021/05/30 05:20:46;;;;;;;0.60;0.50;;;12.20;1.00;;;;;;4802951;28;20243;-75
2021/05/30 05:23:08;;;;;;;1.10;0.53;;;12.00;99.90;;;;;;4802993;28;20184;-77
2021/05/30 05:25:32;;;;;;;3.73;1.53;;;12.10;52.80;;;;;;4800965;28;20212;-75
2021/05/30 05:27:54;;;;;;;2.00;0.83;;;12.60;1.00;;;;;;4785158;28;20631;-77
2021/05/30 05:30:17;;;;;;;1.80;0.83;;;12.40;1.00;;;;;;4802724;28;20211;-74
2021/05/30 05:32:39;;;;;;;3.73;1.63;;;12.70;99.90;;;;;;4802195;28;20677;-74
2021/05/30 05:35:01;;;;;;;2.00;0.93;;;12.90;99.90;;;;;;4802799;28;20196;-75
2021/05/30 05:37:23;;;;;;;2.17;0.80;;;12.90;1.00;;;;;;4802588;28;20577;-74
2021/05/30 05:39:46;;;;;;;1.13;0.60;;;;;;;;;;4802368;28;20658;-75
2021/05/30 05:42:08;;;;;;;1.53;0.70;;;;;;;;;;4802696;28;20525;-73
2021/05/30 05:44:30;;;;;;;4.47;1.53;;;12.60;1.00;;;;;;4802362;28;20235;-74
2021/05/30 05:46:52;;;;;;;2.33;1.00;;;13.00;99.90;;;;;;4802235;28;20595;-74
2021/05/30 05:49:14;;;;;;;2.40;0.97;;;13.60;99.90;;;;;;4802017;28;20271;-74
2021/05/30 05:51:37;;;;;;;4.13;1.57;;;13.30;99.90;;;;;;4801106;28;20224;-73
2021/05/30 05:53:59;;;;;;;1.60;0.73;;;;;;;;;;4800942;28;20196;-73
2021/05/30 05:56:21;;;;;;;2.03;0.80;;;;;;;;;;4802681;28;20191;-73
2021/05/30 05:58:43;;;;;;;4.07;1.57;;;;;;;;;;4801597;28;20258;-75
2021/05/30 06:01:05;;;;;;;2.27;1.00;;;13.60;99.90;;;;;;4799338;28;20195;-75
2021/05/30 06:03:27;;;;;;;1.47;0.63;;;14.20;99.90;;;;;;4801718;28;20250;-74
2021/05/30 06:05:49;;;;;;;2.90;1.03;;;14.20;69.90;;;;;;4802126;28;20191;-74
2021/05/30 06:08:12;;;;;;;2.50;0.90;;;13.80;99.90;;;;;;4785335;28;20224;-75
2021/05/30 06:10:34;;;;;;;3.80;1.43;;;14.00;1.00;;;;;;4783186;29;20236;-74
2021/05/30 06:13:00;;;;;;;2.03;0.80;;;14.30;99.90;;;;;;4784024;28;20242;-74
2021/05/30 06:15:24;;;;;;;2.20;0.93;;;;;;;;;;4782864;29;20189;-74
2021/05/30 06:17:50;;;;;;;1.27;0.60;;;;;;;;;;4782879;29;20193;-74
2021/05/30 06:20:14;;;;;;;2.57;1.00;;;14.40;99.90;;;;;;4782551;29;20233;-74
2021/05/30 06:22:36;;;;;;;3.27;1.13;;;14.60;1.00;;;;;;4782328;29;20239;-74
2021/05/30 06:24:59;;;;;;;1.87;0.70;;;13.50;1.00;;;;;;4783076;29;20208;-75
2021/05/30 06:27:21;;;;;;;1.83;0.77;;;13.70;99.90;;;;;;4765615;29;20579;-75
2021/05/30 06:29:43;;;;;;;5.53;1.97;;;;;;;;;;4782815;29;20332;-73
2021/05/30 06:32:06;;;;;;;2.60;1.10;;;13.90;1.00;;;;;;4782668;29;20213;-75
2021/05/30 06:34:28;;;;;;;2.37;0.93;;;13.40;99.90;;;;;;4791680;28;20208;-74
2021/05/30 06:36:52;;;;;;;1.90;0.80;;;;;;;;;;4800536;28;20216;-74
2021/05/30 06:39:14;;;;;;;1.43;0.73;;;;;;;;;;4800562;28;20196;-73
2021/05/30 06:41:37;;;;;;;4.50;1.57;;;13.90;1.00;;;;;;4801496;28;20188;-74
2021/05/30 06:43:59;;;;;;;1.67;0.67;;;;;;;;;;4800749;28;20556;-76
2021/05/30 06:46:21;;;;;;;3.33;1.20;;;14.90;99.90;;;;;;4801279;28;20235;-75
2021/05/30 06:48:43;;;;;;;4.77;1.73;;;;;;;;;;4800360;28;20243;-74
2021/05/30 06:51:16;;;;;;;1.70;0.70;;;14.40;1.00;;;;;;4800551;28;20200;-77
2021/05/30 06:53:37;;;;;;;4.37;1.43;;;14.50;1.00;;;;;;4800129;28;20251;-75
2021/05/30 06:55:59;;;;;;;2.57;0.97;;;14.80;1.00;;;;;;4800655;28;20197;-76
2021/05/30 06:58:22;;;;;;;2.10;0.77;;;15.20;99.90;;;;;;4783194;28;20264;-75
2021/05/30 07:00:45;;;;;;;18.90;6.40;;;;;;;;;;4798602;28;20389;-75
2021/05/30 07:03:07;;;;;;;2.10;0.87;;;;;;;;;;4795821;28;20243;-75
2021/05/30 07:05:29;;;;;;;3.17;1.17;;;15.00;99.90;;;;;;4800586;28;20196;-77
2021/05/30 07:07:51;;;;;;;1.97;0.70;;;;;;;;;;4801145;28;20228;-76
2021/05/30 07:10:14;;;;;;;2.00;0.67;;;15.40;1.00;;;;;;4801143;28;20254;-75
2021/05/30 07:12:36;;;;;;;4.83;1.47;;;15.40;1.00;;;;;;4800527;28;20212;-76
2021/05/30 07:15:00;;;;;;;2.43;0.80;;;15.80;99.90;;;;;;4801057;28;20188;-75
2021/05/30 07:17:22;;;;;;;3.60;1.13;;;;;;;;;;4800744;28;20188;-75
2021/05/30 07:19:47;;;;;;;3.67;1.17;;;16.30;60.10;;;;;;4766675;28;20691;-77
2021/05/30 07:22:09;;;;;;;3.50;1.07;;;17.00;27.00;;;;;;4800471;28;20591;-80
2021/05/30 07:24:31;;;;;;;4.30;1.20;;;;;;;;;;4799930;28;20198;-76
2021/05/30 07:26:53;;;;;;;3.13;0.97;;;;;;;;;;4800100;28;20270;-75
2021/05/30 07:29:16;;;;;;;2.47;0.80;;;16.90;1.00;;;;;;4799682;28;20212;-75
2021/05/30 07:31:39;;;;;;;6.03;1.77;;;17.00;1.00;;;;;;4800497;28;20804;-77
2021/05/30 07:34:01;;;;;;;3.53;1.07;;;17.20;1.00;;;;;;4800563;28;20733;-80
2021/05/30 07:36:24;;;;;;;2.80;0.93;;;;;;;;;;4800587;28;20264;-77
2021/05/30 07:38:46;;;;;;;1.73;0.60;;;;;;;;;;4799544;28;20227;-82
2021/05/30 07:41:08;;;;;;;2.17;0.73;;;18.30;1.00;;;;;;4800677;28;20239;-76
2021/05/30 07:43:31;;;;;;;6.17;1.73;;;;;;;;;;4800649;28;20196;-77
2021/05/30 07:45:53;;;;;;;1.93;0.67;;;18.00;1.00;;;;;;4799831;28;20761;-83
2021/05/30 07:48:15;;;;;;;3.20;1.00;;;17.90;99.90;;;;;;4799863;28;20235;-83
2021/05/30 07:50:38;;;;;;;4.37;1.43;;;17.90;99.90;;;;;;4800630;28;20184;-85
2021/05/30 07:53:00;;;;;;;3.17;1.00;;;;;;;;;;4801093;28;20274;-85
2021/05/30 07:55:22;;;;;;;2.27;0.80;;;17.20;1.00;;;;;;4800926;28;20196;-85
2021/05/30 07:57:45;;;;;;;2.53;0.83;;;17.40;1.00;;;;;;4768097;28;20197;-85
2021/05/30 08:00:09;;;;;;;1.87;0.60;;;17.30;1.00;;;;;;4784198;28;20205;-86
2021/05/30 08:02:34;;;;;;;2.87;0.97;;;;;;;;;;4799063;28;20228;-76
2021/05/30 08:04:57;;;;;;;3.13;1.00;;;17.30;99.90;;;;;;4800447;28;20736;-81
2021/05/30 08:07:19;;;;;;;2.27;0.87;;;;;;;;;;4801788;28;20224;-84
2021/05/30 08:09:42;;;;;;;4.73;1.50;;;;;;;;;;4796605;28;20264;-85
2021/05/30 08:12:06;;;;;;;3.50;1.00;;;17.20;1.00;;;;;;4793301;28;20698;-76
2021/05/30 08:14:29;;;;;;;2.20;0.80;;;16.70;1.00;;;;;;4794001;28;20197;-75
2021/05/30 08:16:51;;;;;;;2.57;0.90;;;16.90;1.00;;;;;;4787112;28;20681;-74
2021/05/30 08:19:14;;;;;;;3.77;1.13;;;16.90;99.90;;;;;;4781516;29;20248;-76
2021/05/30 08:21:37;;;;;;;4.70;1.47;;;16.90;1.00;;;;;;4780728;29;20204;-73
2021/05/30 08:23:59;;;;;;;2.67;0.90;;;17.00;1.00;;;;;;4781452;29;20212;-75
2021/05/30 08:26:23;;;;;;;3.50;1.23;;;;;;;;;;4780938;29;20209;-75
2021/05/30 08:28:45;;;;;;;4.23;1.40;;;16.30;1.00;;;;;;4781657;29;20190;-73
2021/05/30 08:31:07;;;;;;;1.63;0.70;;;;;;;;;;4789270;28;20545;-80
2021/05/30 08:33:29;;;;;;;2.40;0.73;;;15.90;1.00;;;;;;4790540;28;20721;-83
2021/05/30 08:35:51;;;;;;;4.30;1.30;;;;;;;;;;4806530;28;20296;-74
2021/05/30 08:38:14;;;;;;;3.27;1.03;;;16.10;1.00;;;;;;4806288;28;20574;-74
2021/05/30 08:40:37;;;;;;;5.47;1.63;;;16.80;99.90;;;;;;4799487;28;20195;-74
2021/05/30 08:42:59;;;;;;;2.23;0.70;;;17.50;99.90;;;;;;4797480;28;20238;-73
2021/05/30 08:45:22;;;;;;;2.70;0.80;;;18.40;1.00;;;;;;4799097;28;20192;-76
2021/05/30 08:47:45;;;;;;;4.30;1.30;;;18.50;99.90;;;;;;4781694;28;20906;-74
2021/05/30 08:50:07;;;;;;;4.17;1.20;;;;;;;;;;4799630;28;20228;-80
2021/05/30 08:52:30;;;;;;;5.17;1.43;;;;;;;;;;4799535;28;20208;-75
2021/05/30 08:54:53;;;;;;;3.57;1.00;;;18.90;99.90;;;;;;4799672;28;20190;-78
2021/05/30 08:57:15;;;;;;;3.50;1.00;;;18.90;1.00;;;;;;4799704;28;20233;-74
2021/05/30 08:59:38;;;;;;;6.00;1.70;;;18.50;1.00;;;;;;4798260;28;20625;-75
2021/05/30 09:02:03;;;;;;;3.70;1.03;;;19.20;1.00;;;;;;4790796;28;20233;-74
2021/05/30 09:04:36;;;;;;;3.30;0.90;;;19.50;1.00;;;;;;4763039;29;20241;-76
2021/05/30 09:06:58;;;;;;;4.90;1.20;;;20.20;99.90;;;;;;4779905;29;20246;-75
2021/05/30 09:09:20;;;;;;;4.00;1.03;;;19.80;1.00;;;;;;4763363;29;20242;-78
2021/05/30 09:11:45;;;;;;;8.67;2.10;;;19.70;1.00;;;;;;4787850;28;20217;-74
2021/05/30 09:14:13;;;;;;;5.37;1.33;;;19.30;99.90;;;;;;4789439;28;20680;-74
2021/05/30 09:17:03;;;;;;;7.30;1.63;;;19.30;99.90;;;;;;4793763;28;20182;-77
2021/05/30 09:19:43;;;;;;;7.50;1.83;;;19.10;99.90;;;;;;4761119;28;20586;-78
2021/05/30 09:22:25;;;;;;;6.20;1.57;;;18.90;99.90;;;;;;4795143;28;20182;-76
2021/05/30 09:25:00;;;;;;;9.83;2.37;;;18.60;99.90;;;;;;4795761;28;20248;-85
2021/05/30 09:27:24;;;;;;;4.63;1.23;;;18.30;99.90;;;;;;4807974;28;20201;-88
2021/05/30 09:30:11;;;;;;;6.93;1.67;;;17.80;1.00;;;;;;4795957;28;20210;-75
2021/05/30 09:32:52;;;;;;;4.77;1.20;;;17.80;99.90;;;;;;4795875;28;20208;-75
2021/05/30 09:35:14;;;;;;;3.27;0.93;;;17.70;1.00;;;;;;4817482;28;20199;-74
2021/05/30 09:37:40;;;;;;;10.67;2.60;;;17.70;99.90;;;;;;4801382;28;20189;-75
2021/05/30 09:40:05;;;;;;;6.50;1.60;;;17.10;99.90;;;;;;4806146;28;20195;-84
2021/05/30 09:42:32;;;;;;;4.77;1.30;;;16.80;99.90;;;;;;4793512;28;20195;-76
2021/05/30 09:44:55;;;;;;;5.37;1.30;;;16.70;99.90;;;;;;4799203;28;20200;-76
2021/05/30 09:47:31;;;;;;;5.00;1.17;;;16.50;99.90;;;;;;4800827;28;20258;-78
2021/05/30 09:49:54;;;;;;;2.10;0.60;;;16.30;1.00;;;;;;4803071;28;20180;-89
2021/05/30 09:52:36;;;;;;;3.17;0.90;;;15.90;1.00;;;;;;4800656;28;20212;-81
2021/05/30 09:55:12;;;;;;;5.07;1.50;;;15.30;99.90;;;;;;4777693;28;20769;-74
2021/05/30 09:57:35;;;;;;;5.17;1.37;;;14.60;99.90;;;;;;4800843;28;20175;-75
2021/05/30 09:59:57;;;;;;;4.13;1.20;;;;;;;;;;4801169;28;20188;-78
2021/05/30 10:02:19;;;;;;;3.50;1.00;;;13.50;99.90;;;;;;4795935;28;20215;-82
2021/05/30 10:04:41;;;;;;;6.23;1.70;;;13.10;99.90;;;;;;4780758;28;20547;-84
2021/05/30 10:07:05;;;;;;;2.30;0.70;;;12.60;1.00;;;;;;4812448;28;20246;-85
2021/05/30 10:09:28;;;;;;;2.80;0.90;;;12.30;1.00;;;;;;4807180;28;20624;-87
2021/05/30 10:11:50;;;;;;;5.70;1.70;;;12.20;99.90;;;;;;4783646;28;20197;-86
2021/05/30 10:14:13;;;;;;;2.73;0.90;;;12.10;99.90;;;;;;4801122;28;20569;-82
2021/05/30 10:16:36;;;;;;;5.37;1.53;;;12.10;31.50;;;;;;4800609;28;20816;-76
2021/05/30 10:19:03;;;;;;;3.40;1.10;;;12.10;1.00;;;;;;4800114;28;20246;-76
2021/05/30 10:21:26;;;;;;;3.47;1.13;;;12.60;99.90;;;;;;4796454;28;20600;-78
2021/05/30 10:23:51;;;;;;;7.13;2.10;;;12.60;1.00;;;;;;4801319;28;20255;-77
2021/05/30 10:26:18;;;;;;;3.00;0.97;;;12.90;1.00;;;;;;4783837;28;20224;-75
2021/05/30 10:28:58;;;;;;;6.33;1.80;;;13.30;99.90;;;;;;4800828;28;20259;-77
2021/05/30 10:31:24;;;;;;;4.70;1.40;;;13.60;1.00;;;;;;4798679;28;20195;-77
2021/05/30 10:34:13;;;;;;;5.80;1.77;;;14.30;1.00;;;;;;4800762;28;20266;-75
2021/05/30 10:36:35;;;;;;;5.87;1.53;;;;;;;;;;4815845;28;20210;-74
2021/05/30 10:38:58;;;;;;;3.93;1.20;;;;;;;;;;4800225;28;20657;-74
2021/05/30 10:41:22;;;;;;;3.67;1.10;;;14.20;99.90;;;;;;4800881;28;20192;-76
2021/05/30 10:43:45;;;;;;;5.53;1.67;;;14.00;1.00;;;;;;4799854;28;20255;-75
2021/05/30 10:46:08;;;;;;;4.33;1.30;;;14.30;1.00;;;;;;4800442;28;20540;-73
2021/05/30 10:48:32;;;;;;;2.63;0.80;;;14.30;1.00;;;;;;4800271;28;20196;-73
2021/05/30 10:54:07;;;;;;;2.90;0.93;;;15.30;99.90;;;;;;4786096;28;20231;-73
2021/05/30 10:56:34;;;;;;;6.20;1.67;;;15.90;99.90;;;;;;4797102;28;20571;-74
2021/05/30 10:59:22;;;;;;;4.37;1.20;;;16.50;99.90;;;;;;4800591;28;20187;-73
2021/05/30 11:01:47;;;;;;;8.50;1.93;;;19.00;99.90;;;;;;4797706;28;20188;-75
2021/05/30 11:04:35;;;;;;;3.63;0.80;;;20.40;1.00;;;;;;4798533;28;20208;-75
2021/05/30 11:06:58;;;;;;;7.60;1.43;;;21.80;1.00;;;;;;4799136;28;20259;-74
2021/05/30 11:09:21;;;;;;;7.27;1.33;;;22.10;99.90;;;;;;4800308;28;20201;-74
2021/05/30 11:11:43;;;;;;;12.40;2.10;;;;;;;;;;4799764;28;20683;-75
2021/05/30 11:14:10;;;;;;;7.80;1.47;;;23.00;99.90;;;;;;4799070;28;20238;-77
2021/05/30 11:16:34;;;;;;;5.23;1.00;;;23.60;99.90;;;;;;4799568;28;20652;-77
2021/05/30 11:19:00;;;;;;;10.10;1.53;;;23.60;16.40;;;;;;4799725;28;20234;-78
2021/05/30 11:21:30;;;;;;;8.83;1.40;;;24.40;99.90;;;;;;4799307;28;20184;-79
2021/05/30 11:23:52;;;;;;;7.00;1.10;;;;;;;;;;4759269;28;20203;-76
2021/05/30 11:26:14;;;;;;;13.27;1.83;;;;;;;;;;4786676;28;20191;-74
2021/05/30 11:28:46;;;;;;;22.80;2.90;;;29.60;99.90;;;;;;4774558;28;20196;-78
2021/05/30 11:31:09;;;;;;;15.63;2.50;;;31.00;99.90;;;;;;4799925;28;20195;-81
2021/05/30 11:33:41;;;;;;;7.83;1.10;;;30.20;99.90;;;;;;4799453;28;20231;-77
2021/05/30 11:36:05;;;;;;;15.97;2.10;;;28.20;99.90;;;;;;4781973;28;20284;-77
2021/05/30 11:38:52;;;;;;;11.57;1.63;;;26.50;99.90;;;;;;4799515;28;20204;-77
2021/05/30 11:41:36;;;;;;;13.63;1.93;;;24.50;76.80;;;;;;4796692;28;20751;-75
2021/05/30 11:44:11;;;;;;;12.07;1.77;;;22.60;10.60;;;;;;4794402;28;20200;-74
2021/05/30 11:46:37;;;;;;;10.23;1.50;;;21.60;99.90;;;;;;4755315;28;20750;-74
2021/05/30 11:49:01;;;;;;;10.13;1.67;;;20.60;99.90;;;;;;4798041;28;20201;-74
2021/05/30 11:51:23;;;;;;;7.40;1.30;;;;;;;;;;4795165;28;20539;-75
2021/05/30 11:53:45;;;;;;;12.50;2.10;;;19.30;1.00;;;;;;4797923;28;20207;-73
2021/05/30 11:56:09;;;;;;;7.20;1.43;;;18.80;99.90;;;;;;4798408;28;20203;-73
2021/05/30 11:58:31;;;;;;;6.10;1.30;;;;;;;;;;4797990;28;20227;-77
2021/05/30 12:00:56;;;;;;;6.80;1.43;;;18.40;99.90;;;;;;4786490;28;20185;-74
2021/05/30 12:03:18;;;;;;;7.33;1.63;;;;;;;;;;4792704;28;20278;-77
2021/05/30 12:05:41;;;;;;;8.90;1.90;;;18.40;99.90;;;;;;4797729;28;20188;-79
2021/05/30 12:08:17;;;;;;;5.47;1.27;;;18.40;1.00;;;;;;4795172;28;20743;-76
2021/05/30 12:10:48;;;;;;;8.60;1.93;;;18.10;99.90;;;;;;4790348;28;20207;-78
2021/05/30 12:13:11;;;;;;;6.77;1.53;;;17.70;99.90;;;;;;4792168;28;20261;-74
2021/05/30 12:15:33;;;;;;;7.43;1.70;;;17.70;1.00;;;;;;4797143;28;20635;-74
2021/05/30 12:18:00;;;;;;;6.20;1.40;;;17.30;99.90;;;;;;4771383;28;20230;-74
2021/05/30 12:20:23;;;;;;;7.70;1.63;;;17.00;99.90;;;;;;4797561;28;20207;-74
2021/05/30 12:22:46;;;;;;;9.70;2.13;;;;;;;;;;4796580;28;20201;-76
2021/05/30 12:25:09;;;;;;;11.43;2.37;;;16.60;1.00;;;;;;4769890;28;20203;-76
2021/05/30 12:27:32;;;;;;;6.93;1.40;;;16.40;1.00;;;;;;4794555;28;20251;-79
2021/05/30 12:29:56;;;;;;;9.53;1.83;;;16.40;1.00;;;;;;4796523;28;20712;-73
2021/05/30 12:32:20;;;;;;;7.33;1.50;;;16.20;1.00;;;;;;4797304;28;20188;-74
2021/05/30 12:34:42;;;;;;;10.07;2.13;;;;;;;;;;4796688;28;20196;-75
2021/05/30 12:37:05;;;;;;;6.97;1.40;;;16.40;99.90;;;;;;4794849;28;20662;-79
2021/05/30 12:39:28;;;;;;;7.57;1.63;;;16.30;1.00;;;;;;4797107;28;20188;-75
2021/05/30 12:41:58;;;;;;;9.63;1.97;;;16.40;1.00;;;;;;4779434;28;20200;-75
2021/05/30 12:44:21;;;;;;;5.90;1.20;;;16.20;99.90;;;;;;4798083;28;20257;-78
2021/05/30 12:46:55;;;;;;;11.00;2.43;;;16.30;1.00;;;;;;4804235;28;20196;-78
2021/05/30 12:49:17;;;;;;;5.73;1.27;;;;;;;;;;4796719;28;20238;-78
2021/05/30 12:51:39;;;;;;;9.20;1.97;;;;;;;;;;4796695;28;20196;-73
2021/05/30 12:54:16;;;;;;;5.50;1.40;;;17.40;1.00;;;;;;4788579;28;20207;-75
2021/05/30 12:56:45;;;;;;;8.10;1.93;;;16.10;1.00;;;;;;4796865;28;20543;-76
2021/05/30 12:59:12;;;;;;;4.97;1.20;;;15.00;99.90;;;;;;4795658;28;20243;-74
2021/05/30 13:01:37;;;;;;;6.57;1.57;;;15.50;1.00;;;;;;4779344;28;20237;-73
2021/05/30 13:04:21;;;;;;;4.63;1.27;;;14.50;99.90;;;;;;4805298;28;20227;-76
2021/05/30 13:06:53;;;;;;;8.47;2.00;;;14.30;1.00;;;;;;4800712;28;20215;-74
2021/05/30 13:09:15;;;;;;;4.07;1.07;;;13.80;99.90;;;;;;4797499;28;20674;-75